createdAt,value
2022-08-07T00:00:26.218Z,41.85
2022-08-07T00:02:53.729Z,41.71
2022-08-07T00:05:23.771Z,41.80
2022-08-07T00:07:58.491Z,41.67
2022-08-07T00:10:30.545Z,41.95
2022-08-07T00:13:09.730Z,41.84
2022-08-07T00:15:51.192Z,42.28
2022-08-07T00:18:24.426Z,42.22
2022-08-07T00:21:01.366Z,42.29
2022-08-07T00:23:31.679Z,42.60
2022-08-07T00:26:13.300Z,42.81
2022-08-07T00:28:56.489Z,42.76
2022-08-07T00:31:26.008Z,42.71
2022-08-07T00:34:08.476Z,43.09
2022-08-07T00:36:42.577Z,43.35
2022-08-07T00:39:16.099Z,43.02
2022-08-07T00:42:01.827Z,43.15
2022-08-07T00:44:33.189Z,43.22
2022-08-07T00:47:01.609Z,43.25
2022-08-07T00:50:21.252Z,43.66
2022-08-07T00:52:17.613Z,43.27
2022-08-07T00:54:53.976Z,43.51
2022-08-07T00:57:25.816Z,43.64
2022-08-07T00:59:54.013Z,44.10
2022-08-07T01:02:28.569Z,44.26
2022-08-07T01:04:58.370Z,43.99
2022-08-07T01:07:29.241Z,44.01
2022-08-07T01:10:06.090Z,44.33
2022-08-07T01:12:53.125Z,43.98
2022-08-07T01:15:36.089Z,44.36
2022-08-07T01:18:10.645Z,44.46
2022-08-07T01:20:58.434Z,44.21
2022-08-07T01:23:38.078Z,44.21
2022-08-07T01:26:12.046Z,44.37
2022-08-07T01:28:46.177Z,44.44
2022-08-07T01:31:18.117Z,44.28
2022-08-07T01:33:56.108Z,44.14
2022-08-07T01:36:33.394Z,44.68
2022-08-07T01:39:01.443Z,44.63
2022-08-07T01:41:37.023Z,44.67
2022-08-07T01:44:06.006Z,44.68
2022-08-07T01:46:33.241Z,45.00
2022-08-07T01:49:00.186Z,45.26
2022-08-07T01:52:01.294Z,45.17
2022-08-07T01:54:21.859Z,44.97
2022-08-07T01:57:27.946Z,45.26
2022-08-07T02:00:13.024Z,45.16
2022-08-07T02:03:22.047Z,45.56
2022-08-07T02:06:01.196Z,45.45
2022-08-07T02:08:30.956Z,45.31
2022-08-07T02:11:00.117Z,45.52
2022-08-07T02:14:00.802Z,45.55
2022-08-07T02:16:19.946Z,45.70
2022-08-07T02:18:56.443Z,45.41
2022-08-07T02:21:24.916Z,45.91
2022-08-07T02:23:53.271Z,45.70
2022-08-07T02:26:33.885Z,45.63
2022-08-07T02:29:05.117Z,45.80
2022-08-07T02:31:41.248Z,46.05
2022-08-07T02:34:11.542Z,46.08
2022-08-07T02:36:45.982Z,46.30
2022-08-07T02:39:17.095Z,46.52
2022-08-07T02:42:03.496Z,47.04
2022-08-07T02:44:42.266Z,46.94
2022-08-07T02:47:19.240Z,46.97
2022-08-07T02:49:58.045Z,46.99
2022-08-07T02:52:48.652Z,46.95
2022-08-07T02:56:02.990Z,46.83
2022-08-07T02:58:21.490Z,46.97
2022-08-07T03:00:52.688Z,47.15
2022-08-07T03:03:22.805Z,46.92
2022-08-07T03:05:53.592Z,47.10
2022-08-07T03:08:26.815Z,47.27
2022-08-07T03:10:57.545Z,46.98
2022-08-07T03:13:25.431Z,47.41
2022-08-07T03:15:58.337Z,47.76
2022-08-07T03:18:34.337Z,47.45
2022-08-07T03:21:08.588Z,47.79
2022-08-07T03:24:20.524Z,47.31
2022-08-07T03:26:31.887Z,47.61
2022-08-07T03:29:03.129Z,47.86
2022-08-07T03:31:43.274Z,47.96
2022-08-07T03:34:18.214Z,47.78
2022-08-07T03:36:46.106Z,48.21
2022-08-07T03:39:17.623Z,47.66
2022-08-07T03:42:08.097Z,47.94
2022-08-07T03:44:36.880Z,48.10
2022-08-07T03:47:13.248Z,48.45
2022-08-07T03:49:52.166Z,47.85
2022-08-07T03:52:26.228Z,47.56
2022-08-07T03:55:06.260Z,47.41
2022-08-07T03:58:32.483Z,47.08
2022-08-07T04:00:29.243Z,47.42
2022-08-07T04:02:59.539Z,47.91
2022-08-07T04:05:40.322Z,47.95
2022-08-07T04:08:16.224Z,47.63
2022-08-07T04:10:53.931Z,47.63
2022-08-07T04:13:27.648Z,47.64
2022-08-07T04:15:55.071Z,47.83
2022-08-07T04:18:57.335Z,47.88
2022-08-07T04:21:09.148Z,48.09
2022-08-07T04:23:43.399Z,48.18
2022-08-07T04:26:24.076Z,48.16
2022-08-07T04:28:55.411Z,48.27
2022-08-07T04:31:39.043Z,47.94
2022-08-07T04:34:16.881Z,47.53
2022-08-07T04:36:45.365Z,47.13
2022-08-07T04:39:16.124Z,46.78
2022-08-07T04:41:50.327Z,46.84
2022-08-07T04:44:18.849Z,46.71
2022-08-07T04:47:23.638Z,46.23
2022-08-07T04:50:14.300Z,45.90
2022-08-07T04:52:50.942Z,45.33
2022-08-07T04:58:07.348Z,44.84
2022-08-07T04:59:09.130Z,44.25
2022-08-07T05:01:56.700Z,44.04
2022-08-07T05:04:50.123Z,43.69
2022-08-07T05:07:36.577Z,43.19
2022-08-07T05:10:14.337Z,42.74
2022-08-07T05:12:53.733Z,42.52
2022-08-07T05:15:27.307Z,42.30
2022-08-07T05:18:01.396Z,42.23
2022-08-07T05:20:38.258Z,41.53
2022-08-07T05:23:15.584Z,41.19
2022-08-07T05:26:13.071Z,41.42
2022-08-07T05:28:33.690Z,40.92
2022-08-07T05:31:01.537Z,40.36
2022-08-07T05:33:35.478Z,40.33
2022-08-07T05:36:07.736Z,39.87
2022-08-07T05:38:59.485Z,39.40
2022-08-07T05:42:00.294Z,38.90
2022-08-07T05:44:29.160Z,38.30
2022-08-07T05:46:58.227Z,37.22
2022-08-07T05:49:27.714Z,36.63
2022-08-07T05:52:08.400Z,36.53
2022-08-07T05:54:44.556Z,35.63
2022-08-07T05:57:22.151Z,35.01
2022-08-07T05:59:58.007Z,34.36
2022-08-07T06:02:29.677Z,33.54
2022-08-07T06:05:03.984Z,32.78
2022-08-07T06:08:14.034Z,31.95
2022-08-07T06:10:20.939Z,32.01
2022-08-07T06:12:49.935Z,30.86
2022-08-07T06:15:19.885Z,30.19
2022-08-07T06:17:53.527Z,29.97
2022-08-07T06:20:25.544Z,29.39
2022-08-07T06:23:46.680Z,27.90
2022-08-07T06:26:00.075Z,26.96
2022-08-07T06:28:28.567Z,26.50
2022-08-07T06:30:58.126Z,24.97
2022-08-07T06:33:26.522Z,23.65
2022-08-07T06:36:12.991Z,22.61
2022-08-07T06:38:58.439Z,22.63
2022-08-07T06:42:02.440Z,21.61
2022-08-07T06:44:33.953Z,20.73
2022-08-07T06:47:12.360Z,20.80
2022-08-07T06:49:51.049Z,19.91
2022-08-07T06:52:31.705Z,20.14
2022-08-07T06:55:53.646Z,19.37
2022-08-07T06:58:16.663Z,17.81
2022-08-07T07:00:53.009Z,17.32
2022-08-07T07:03:26.459Z,17.05
2022-08-07T07:06:11.360Z,17.20
2022-08-07T07:08:39.639Z,15.64
2022-08-07T07:12:08.161Z,15.73
2022-08-07T07:14:02.485Z,15.13
2022-08-07T07:16:45.140Z,14.53
2022-08-07T07:19:57.993Z,14.57
2022-08-07T07:22:39.865Z,13.57
2022-08-07T07:25:13.947Z,14.57
2022-08-07T07:28:03.159Z,14.17
2022-08-07T07:30:40.019Z,14.74
2022-08-07T07:33:12.024Z,14.92
2022-08-07T07:35:54.678Z,14.58
2022-08-07T07:38:35.807Z,14.59
2022-08-07T07:41:08.946Z,15.05
2022-08-07T07:43:47.936Z,15.03
2022-08-07T07:46:36.752Z,14.64
2022-08-07T07:50:33.818Z,14.11
2022-08-07T07:52:12.791Z,14.30
2022-08-07T07:54:50.871Z,14.49
2022-08-07T07:57:52.133Z,13.78
2022-08-07T08:00:18.298Z,14.94
2022-08-07T08:03:16.362Z,14.88
2022-08-07T08:05:54.152Z,15.89
2022-08-07T08:08:35.497Z,14.98
2022-08-07T08:11:16.383Z,14.25
2022-08-07T08:13:53.695Z,14.97
2022-08-07T08:16:29.659Z,14.08
2022-08-07T08:18:58.673Z,14.32
2022-08-07T08:22:07.882Z,13.20
2022-08-07T08:25:09.396Z,12.33
2022-08-07T08:27:56.617Z,12.67
2022-08-07T08:30:29.272Z,12.50
2022-08-07T08:33:03.158Z,11.46
2022-08-07T08:35:39.617Z,11.34
2022-08-07T08:38:17.316Z,11.17
2022-08-07T08:41:23.183Z,11.60
2022-08-07T08:44:19.090Z,10.53
2022-08-07T08:47:11.218Z,10.80
2022-08-07T08:50:11.081Z,10.60
2022-08-07T08:52:53.942Z,10.24
2022-08-07T08:55:58.489Z,10.85
2022-08-07T08:58:57.191Z,10.22
2022-08-07T09:01:29.976Z,9.60
2022-08-07T09:04:43.639Z,9.14
2022-08-07T09:07:57.716Z,9.30
2022-08-07T09:10:47.415Z,9.87
2022-08-07T09:13:53.598Z,9.93
2022-08-07T09:16:52.303Z,9.38
2022-08-07T09:20:00.506Z,9.60
2022-08-07T09:24:32.441Z,9.16
2022-08-07T09:25:54.723Z,9.27
2022-08-07T09:30:04.214Z,9.44
2022-08-07T09:31:50.718Z,8.87
2022-08-07T09:36:05.426Z,9.11
2022-08-07T09:38:14.092Z,8.94
2022-08-07T09:41:11.999Z,8.26
2022-08-07T09:44:30.125Z,8.51
2022-08-07T09:47:51.179Z,8.90
2022-08-07T09:50:41.415Z,8.88
2022-08-07T09:53:12.943Z,9.07
2022-08-07T09:56:13.694Z,9.76
2022-08-07T09:59:14.902Z,9.93
2022-08-07T10:02:13.695Z,9.18
2022-08-07T10:05:12.745Z,9.29
2022-08-07T10:08:21.783Z,9.06
2022-08-07T10:12:01.779Z,10.42
2022-08-07T10:14:55.191Z,9.32
2022-08-07T10:18:06.367Z,9.40
2022-08-07T10:21:14.923Z,10.85
2022-08-07T10:24:10.049Z,12.20
2022-08-07T10:27:10.527Z,13.88
2022-08-07T10:29:53.196Z,15.48
2022-08-07T10:33:00.201Z,18.01
2022-08-07T10:36:10.842Z,20.68
2022-08-07T10:39:04.434Z,23.20
2022-08-07T10:41:56.775Z,23.53
2022-08-07T10:45:19.398Z,24.56
2022-08-07T10:48:12.246Z,25.56
2022-08-07T10:50:50.831Z,26.67
2022-08-07T10:53:44.878Z,26.81
2022-08-07T10:56:44.097Z,28.01
2022-08-07T10:59:52.714Z,28.85
2022-08-07T11:02:59.977Z,28.01
2022-08-07T11:05:59.355Z,28.36
2022-08-07T11:08:54.214Z,28.54
2022-08-07T11:11:30.913Z,29.54
2022-08-07T11:14:43.826Z,29.71
2022-08-07T11:17:43.304Z,29.93
2022-08-07T11:20:24.539Z,29.75
2022-08-07T11:23:30.764Z,30.26
2022-08-07T11:26:33.827Z,29.74
2022-08-07T11:29:41.883Z,29.81
2022-08-07T11:32:16.610Z,28.29
2022-08-07T11:35:09.405Z,27.93
2022-08-07T11:38:10.253Z,28.08
2022-08-07T11:40:58.943Z,27.68
2022-08-07T11:44:12.186Z,29.78
2022-08-07T11:47:07.715Z,29.72
2022-08-07T11:50:25.496Z,28.86
2022-08-07T11:52:40.195Z,28.85
2022-08-07T11:56:13.954Z,27.30
2022-08-07T11:58:33.421Z,27.08
2022-08-07T12:01:20.236Z,27.78
2022-08-07T12:04:17.267Z,27.53
2022-08-07T12:07:00.322Z,27.77
2022-08-07T12:09:40.048Z,28.19
2022-08-07T12:12:12.018Z,28.46
2022-08-07T12:15:01.447Z,27.60
2022-08-07T12:17:39.529Z,27.96
2022-08-07T12:20:30.117Z,27.89
2022-08-07T12:24:07.615Z,27.77
2022-08-07T12:26:46.137Z,27.85
2022-08-07T12:29:38.639Z,27.74
2022-08-07T12:32:30.203Z,26.34
2022-08-07T12:35:02.891Z,27.13
2022-08-07T12:38:10.383Z,26.31
2022-08-07T12:40:47.962Z,27.21
2022-08-07T12:44:02.923Z,26.66
2022-08-07T12:46:34.495Z,26.99
2022-08-07T12:49:39.719Z,26.32
2022-08-07T12:52:17.943Z,26.52
2022-08-07T12:55:05.144Z,27.29
2022-08-07T12:57:39.276Z,26.58
2022-08-07T13:01:07.765Z,26.61
2022-08-07T13:04:35.192Z,26.29
2022-08-07T13:08:11.496Z,26.79
2022-08-07T13:10:54.472Z,26.37
2022-08-07T13:13:49.539Z,25.97
2022-08-07T13:16:36.757Z,25.79
2022-08-07T13:19:50.360Z,25.75
2022-08-07T13:22:32.219Z,26.13
2022-08-07T13:25:24.274Z,25.88
2022-08-07T13:28:13.339Z,26.36
2022-08-07T13:30:53.134Z,26.43
2022-08-07T13:34:31.338Z,26.05
2022-08-07T13:36:51.488Z,26.47
2022-08-07T13:40:34.368Z,26.85
2022-08-07T13:42:26.669Z,26.91
2022-08-07T13:45:20.864Z,27.11
2022-08-07T13:48:07.689Z,27.08
2022-08-07T13:50:44.959Z,26.19
2022-08-07T13:53:23.855Z,25.25
2022-08-07T13:55:54.565Z,25.68
2022-08-07T13:58:56.697Z,26.24
2022-08-07T14:01:27.544Z,26.03
2022-08-07T14:04:15.847Z,26.36
2022-08-07T14:06:50.200Z,26.86
2022-08-07T14:10:12.265Z,26.56
2022-08-07T14:12:58.642Z,26.14
2022-08-07T14:15:43.164Z,26.68
2022-08-07T14:18:29.920Z,26.81
2022-08-07T14:22:03.921Z,26.78
2022-08-07T14:24:50.050Z,26.13
2022-08-07T14:30:16.607Z,27.27
2022-08-07T14:33:04.682Z,26.81
2022-08-07T14:38:31.350Z,27.98
2022-08-07T14:41:12.424Z,27.81
2022-08-07T14:43:57.180Z,27.42
2022-08-07T14:46:32.002Z,27.62
2022-08-07T14:49:56.150Z,27.70
2022-08-07T14:52:04.820Z,27.85
2022-08-07T14:54:42.937Z,28.06
2022-08-07T14:57:19.393Z,28.17
2022-08-07T15:02:37.316Z,27.65
2022-08-07T15:05:20.343Z,28.21
2022-08-07T15:07:56.019Z,28.17
2022-08-07T15:10:30.078Z,27.38
2022-08-07T15:13:06.196Z,27.69
2022-08-07T15:15:43.020Z,26.96
2022-08-07T15:18:28.578Z,26.83
2022-08-07T15:21:58.804Z,27.28
2022-08-07T15:25:16.235Z,27.10
2022-08-07T15:27:15.552Z,26.75
2022-08-07T15:32:39.656Z,27.21
2022-08-07T15:35:16.700Z,27.37
2022-08-07T15:38:17.457Z,27.02
2022-08-07T15:40:37.909Z,26.92
2022-08-07T15:43:53.767Z,26.97
2022-08-07T15:49:17.357Z,25.99
2022-08-07T15:54:39.404Z,25.99
2022-08-07T15:57:40.171Z,26.14
2022-08-07T15:59:59.515Z,26.25
2022-08-07T16:02:41.149Z,26.21
2022-08-07T16:05:18.366Z,26.40
2022-08-07T16:08:30.359Z,26.01
2022-08-07T16:11:27.241Z,26.03
2022-08-07T16:14:02.819Z,26.09
2022-08-07T16:17:03.288Z,26.07
2022-08-07T16:19:59.120Z,26.52
2022-08-07T16:23:05.496Z,26.27
2022-08-07T16:26:00.431Z,26.48
2022-08-07T16:30:06.406Z,25.92
2022-08-07T16:32:25.489Z,26.08
2022-08-07T16:35:51.455Z,26.34
2022-08-07T16:38:59.972Z,26.29
2022-08-07T16:42:01.560Z,26.60
2022-08-07T16:45:24.567Z,26.70
2022-08-07T16:48:13.629Z,26.41
2022-08-07T16:51:52.041Z,26.61
2022-08-07T16:54:33.398Z,26.22
2022-08-07T16:57:28.837Z,26.56
2022-08-07T17:00:30.163Z,25.92
2022-08-07T17:03:58.493Z,26.70
2022-08-07T17:06:57.995Z,26.65
2022-08-07T17:10:07.048Z,26.88
2022-08-07T17:12:52.998Z,26.66
2022-08-07T17:16:03.302Z,26.81
2022-08-07T17:18:51.719Z,26.75
2022-08-07T17:21:50.652Z,27.30
2022-08-07T17:24:38.424Z,27.53
2022-08-07T17:27:19.661Z,28.05
2022-08-07T17:30:15.818Z,28.05
2022-08-07T17:34:09.247Z,28.33
2022-08-07T17:36:20.728Z,28.58
2022-08-07T17:39:57.884Z,28.52
2022-08-07T17:42:58.094Z,27.90
2022-08-07T17:45:39.010Z,28.03
2022-08-07T17:48:31.083Z,27.68
2022-08-07T17:51:23.082Z,28.36
2022-08-07T17:54:39.704Z,28.49
2022-08-07T17:57:58.679Z,28.67
2022-08-07T18:00:34.509Z,28.64
2022-08-07T18:04:04.110Z,29.12
2022-08-07T18:06:38.624Z,28.96
2022-08-07T18:09:08.615Z,28.97
2022-08-07T18:12:16.203Z,29.06
2022-08-07T18:14:46.242Z,29.51
2022-08-07T18:18:36.667Z,29.69
2022-08-07T18:21:09.922Z,29.65
2022-08-07T18:23:50.832Z,30.08
2022-08-07T18:27:17.438Z,29.93
2022-08-07T18:30:06.867Z,30.07
2022-08-07T18:33:12.161Z,30.04
2022-08-07T18:36:03.331Z,30.36
2022-08-07T18:38:58.182Z,30.55
2022-08-07T18:41:57.939Z,30.39
2022-08-07T18:45:40.124Z,30.74
2022-08-07T18:50:04.674Z,30.78
2022-08-07T18:52:37.946Z,30.42
2022-08-07T18:54:51.007Z,31.26
2022-08-07T18:57:59.592Z,30.99
2022-08-07T19:01:03.568Z,31.14
2022-08-07T19:04:09.929Z,31.27
2022-08-07T19:06:57.761Z,31.50
2022-08-07T19:10:14.808Z,31.31
2022-08-07T19:12:58.121Z,31.15
2022-08-07T19:16:04.462Z,31.39
2022-08-07T19:19:13.216Z,31.37
2022-08-07T19:22:07.133Z,31.79
2022-08-07T19:24:46.224Z,31.85
2022-08-07T19:28:57.546Z,31.62
2022-08-07T19:30:57.313Z,31.41
2022-08-07T19:33:10.206Z,31.51
2022-08-07T19:35:42.645Z,31.74
2022-08-07T19:38:16.966Z,31.44
2022-08-07T19:40:49.705Z,31.61
2022-08-07T19:43:43.661Z,31.46
2022-08-07T19:46:17.944Z,31.85
2022-08-07T19:48:53.520Z,32.39
2022-08-07T19:51:50.994Z,31.82
2022-08-07T19:54:34.442Z,32.41
2022-08-07T19:58:02.865Z,31.95
2022-08-07T19:59:59.883Z,32.22
2022-08-07T20:02:35.194Z,32.21
2022-08-07T20:05:10.027Z,32.33
2022-08-07T20:07:46.121Z,32.65
2022-08-07T20:10:36.108Z,32.83
2022-08-07T20:13:23.863Z,32.67
2022-08-07T20:15:57.701Z,33.03
2022-08-07T20:18:33.354Z,33.01
2022-08-07T20:21:14.234Z,32.91
2022-08-07T20:24:03.601Z,33.08
2022-08-07T20:26:44.843Z,33.71
2022-08-07T20:29:47.818Z,33.85
2022-08-07T20:32:11.566Z,33.64
2022-08-07T20:35:07.609Z,33.10
2022-08-07T20:37:46.823Z,33.37
2022-08-07T20:40:32.612Z,33.96
2022-08-07T20:43:03.174Z,34.18
2022-08-07T20:46:28.848Z,33.97
2022-08-07T20:48:30.242Z,33.48
2022-08-07T20:51:09.651Z,33.90
2022-08-07T20:54:02.967Z,33.97
2022-08-07T20:56:29.305Z,34.02
2022-08-07T20:59:01.909Z,34.53
2022-08-07T21:01:45.300Z,34.18
2022-08-07T21:04:21.652Z,34.27
2022-08-07T21:06:53.392Z,34.26
2022-08-07T21:09:24.698Z,34.37
2022-08-07T21:11:57.720Z,34.67
2022-08-07T21:14:36.683Z,34.49
2022-08-07T21:18:20.243Z,34.67
2022-08-07T21:20:04.962Z,35.15
2022-08-07T21:23:08.227Z,34.92
2022-08-07T21:26:03.576Z,35.18
2022-08-07T21:28:55.840Z,34.97
2022-08-07T21:32:42.970Z,34.86
2022-08-07T21:34:48.985Z,34.65
2022-08-07T21:37:58.308Z,34.72
2022-08-07T21:40:38.401Z,35.08
2022-08-07T21:43:36.679Z,34.90
2022-08-07T21:46:33.034Z,35.28
2022-08-07T21:49:25.561Z,35.24
2022-08-07T21:52:11.901Z,35.43
2022-08-07T21:54:54.263Z,35.51
2022-08-07T21:57:44.823Z,35.78
2022-08-07T22:00:24.874Z,35.70
2022-08-07T22:03:17.165Z,35.86
2022-08-07T22:06:30.796Z,36.02
2022-08-07T22:09:10.936Z,35.81
2022-08-07T22:12:05.286Z,35.94
2022-08-07T22:15:02.326Z,36.00
2022-08-07T22:17:40.963Z,35.53
2022-08-07T22:20:24.837Z,35.71
2022-08-07T22:23:17.846Z,35.66
2022-08-07T22:26:30.996Z,35.78
2022-08-07T22:29:13.778Z,35.89
2022-08-07T22:32:06.322Z,35.82
2022-08-07T22:34:53.724Z,36.16
2022-08-07T22:38:02.802Z,35.87
2022-08-07T22:40:53.515Z,35.99
2022-08-07T22:43:47.552Z,36.31
2022-08-07T22:47:03.937Z,36.52
2022-08-07T22:49:33.792Z,36.49
2022-08-07T22:52:47.410Z,36.47
2022-08-07T22:55:53.975Z,36.75
2022-08-07T22:58:52.337Z,36.36
2022-08-07T23:01:54.500Z,36.84
2022-08-07T23:06:10.026Z,36.76
2022-08-07T23:08:23.842Z,36.92
2022-08-07T23:11:29.097Z,37.01
2022-08-07T23:14:49.391Z,37.13
2022-08-07T23:17:31.238Z,37.56
2022-08-07T23:20:40.333Z,37.34
2022-08-07T23:24:06.858Z,37.48
2022-08-07T23:27:33.569Z,37.68
2022-08-07T23:30:37.207Z,37.56
2022-08-07T23:34:35.391Z,37.65
2022-08-07T23:38:00.518Z,37.95
2022-08-07T23:40:51.809Z,37.85
2022-08-07T23:44:01.028Z,38.52
2022-08-07T23:47:17.674Z,38.53
2022-08-07T23:50:02.051Z,38.67
2022-08-07T23:53:05.211Z,38.38
2022-08-07T23:56:14.163Z,38.56
